This is the latest recevied weather packets stored in our database for station/object SP3WRO-13. If no packets are shown the sender has not sent any weather packets the latest 10 day(s).
| Time | Temp. | Humidity | Pressure | Rain* | Wind** | Luminosity | Snow |
|---|---|---|---|---|---|---|---|
| 1777583648 | 5.56° C | 80% | 1024.5 hPa | - | - | - | - |
| 1777582748 | 6.11° C | 81% | 1024.5 hPa | - | - | - | - |
| 1777581848 | 6.67° C | 81% | 1024.5 hPa | - | - | - | - |
| 1777580048 | 7.22° C | 83% | 1024.5 hPa | - | - | - | - |
| 1777579148 | 7.22° C | 82% | 1024.5 hPa | - | - | - | - |
| 1777578248 | 7.22° C | 81% | 1024.4 hPa | - | - | - | - |
| 1777577347 | 7.22° C | 83% | 1024.4 hPa | - | - | - | - |
| 1777572847 | 11.67° C | 63% | 1024 hPa | - | - | 5 W/m² | - |
| 1777571947 | 12.78° C | 58% | 1023.8 hPa | - | - | 12 W/m² | - |
| 1777571047 | 14.44° C | 52% | 1023.7 hPa | - | - | 19 W/m² | - |
| 1777570147 | 15.56° C | 48% | 1023.7 hPa | - | - | 25 W/m² | - |
| 1777569247 | 16.11° C | 44% | 1023.8 hPa | - | - | 36 W/m² | - |
| 1777568347 | 16.67° C | 43% | 1023.7 hPa | - | - | 45 W/m² | - |
| 1777564747 | 16.67° C | 43% | 1024.3 hPa | - | - | 123 W/m² | - |
| 1777562046 | 17.22° C | 42% | 1024.5 hPa | - | - | 126 W/m² | - |
| 1777557546 | 16.67° C | 42% | 1025.1 hPa | - | - | 262 W/m² | - |
| 1777556646 | 16.11° C | 42% | 1025.2 hPa | - | - | 393 W/m² | - |
| 1777555746 | 16.67° C | 42% | 1025.3 hPa | - | - | 310 W/m² | - |
| 1777554846 | 16.11° C | 43% | 1025.6 hPa | - | - | 343 W/m² | - |
| 1777553946 | 16.67° C | 40% | 1025.6 hPa | - | - | 422 W/m² | - |
| 1777552146 | 15.56° C | 39% | 1025.8 hPa | - | - | 304 W/m² | - |
| 1777547645 | 15.56° C | 39% | 1026.3 hPa | - | - | 529 W/m² | - |
| 1777546745 | 15° C | 41% | 1026.4 hPa | - | - | 417 W/m² | - |
| 1777545845 | 14.44° C | 38% | 1026.6 hPa | - | - | 435 W/m² | - |
| 1777544945 | 13.89° C | 39% | 1026.9 hPa | - | - | 399 W/m² | - |
* Rain since midnight (hover to see other rain measurements)
** Current wind speed in m/s (hover to see current wind gust speed)